sensor_id;sensor_type;location;lat;lon;timestamp;P1;durP1;ratioP1;P2;durP2;ratioP2
950;SDS011;462;48.758;9.256;2022-12-18T00:03:19;53.63;;;28.03;;
950;SDS011;462;48.758;9.256;2022-12-18T00:11:24;51.93;;;27.87;;
950;SDS011;462;48.758;9.256;2022-12-18T00:19:27;53.73;;;28.20;;
950;SDS011;462;48.758;9.256;2022-12-18T00:27:31;53.87;;;28.20;;
950;SDS011;462;48.758;9.256;2022-12-18T00:35:34;52.20;;;29.20;;
950;SDS011;462;48.758;9.256;2022-12-18T00:43:38;68.80;;;31.90;;
950;SDS011;462;48.758;9.256;2022-12-18T00:51:41;56.57;;;33.30;;
950;SDS011;462;48.758;9.256;2022-12-18T00:59:44;53.23;;;31.00;;
950;SDS011;462;48.758;9.256;2022-12-18T01:07:47;55.90;;;31.13;;
950;SDS011;462;48.758;9.256;2022-12-18T01:15:51;55.33;;;27.60;;
950;SDS011;462;48.758;9.256;2022-12-18T01:23:54;51.73;;;29.13;;
950;SDS011;462;48.758;9.256;2022-12-18T01:31:58;51.37;;;27.63;;
950;SDS011;462;48.758;9.256;2022-12-18T01:40:04;75.87;;;36.53;;
950;SDS011;462;48.758;9.256;2022-12-18T01:48:09;55.80;;;29.00;;
950;SDS011;462;48.758;9.256;2022-12-18T01:56:12;59.83;;;32.43;;
950;SDS011;462;48.758;9.256;2022-12-18T02:04:21;65.70;;;33.50;;
950;SDS011;462;48.758;9.256;2022-12-18T02:12:25;60.90;;;31.57;;
950;SDS011;462;48.758;9.256;2022-12-18T02:20:33;49.97;;;27.00;;
950;SDS011;462;48.758;9.256;2022-12-18T02:28:40;53.80;;;31.83;;
950;SDS011;462;48.758;9.256;2022-12-18T02:36:44;64.03;;;32.17;;
950;SDS011;462;48.758;9.256;2022-12-18T02:44:51;53.83;;;27.97;;
950;SDS011;462;48.758;9.256;2022-12-18T02:53:00;58.47;;;30.30;;
950;SDS011;462;48.758;9.256;2022-12-18T03:01:13;54.17;;;31.27;;
950;SDS011;462;48.758;9.256;2022-12-18T03:09:19;51.67;;;27.00;;
950;SDS011;462;48.758;9.256;2022-12-18T03:17:33;52.00;;;28.37;;
950;SDS011;462;48.758;9.256;2022-12-18T03:25:37;42.83;;;24.70;;
950;SDS011;462;48.758;9.256;2022-12-18T03:33:43;48.67;;;25.53;;
950;SDS011;462;48.758;9.256;2022-12-18T03:41:51;46.40;;;24.97;;
950;SDS011;462;48.758;9.256;2022-12-18T03:50:10;55.93;;;28.53;;
950;SDS011;462;48.758;9.256;2022-12-18T03:58:19;39.80;;;21.73;;
950;SDS011;462;48.758;9.256;2022-12-18T04:06:36;42.57;;;22.97;;
950;SDS011;462;48.758;9.256;2022-12-18T04:14:39;44.60;;;23.63;;
950;SDS011;462;48.758;9.256;2022-12-18T04:22:45;44.90;;;25.07;;
950;SDS011;462;48.758;9.256;2022-12-18T04:30:48;46.23;;;24.07;;
950;SDS011;462;48.758;9.256;2022-12-18T04:38:52;44.97;;;23.43;;
950;SDS011;462;48.758;9.256;2022-12-18T04:46:55;43.10;;;24.70;;
950;SDS011;462;48.758;9.256;2022-12-18T04:54:59;46.50;;;24.47;;
950;SDS011;462;48.758;9.256;2022-12-18T05:03:02;46.07;;;22.73;;
950;SDS011;462;48.758;9.256;2022-12-18T05:11:07;46.90;;;23.83;;
950;SDS011;462;48.758;9.256;2022-12-18T05:19:11;34.73;;;21.63;;
950;SDS011;462;48.758;9.256;2022-12-18T05:27:14;34.87;;;21.60;;
950;SDS011;462;48.758;9.256;2022-12-18T05:35:19;36.67;;;23.80;;
950;SDS011;462;48.758;9.256;2022-12-18T05:43:23;41.53;;;22.37;;
950;SDS011;462;48.758;9.256;2022-12-18T05:51:26;40.17;;;22.53;;
950;SDS011;462;48.758;9.256;2022-12-18T05:59:30;39.30;;;24.00;;
950;SDS011;462;48.758;9.256;2022-12-18T06:07:33;55.03;;;30.00;;
950;SDS011;462;48.758;9.256;2022-12-18T06:15:37;44.83;;;25.30;;
950;SDS011;462;48.758;9.256;2022-12-18T06:23:39;42.10;;;24.90;;
950;SDS011;462;48.758;9.256;2022-12-18T06:31:43;26.97;;;17.23;;
950;SDS011;462;48.758;9.256;2022-12-18T06:39:45;24.97;;;14.30;;
950;SDS011;462;48.758;9.256;2022-12-18T06:47:49;28.93;;;18.10;;
950;SDS011;462;48.758;9.256;2022-12-18T06:55:52;31.13;;;18.10;;
950;SDS011;462;48.758;9.256;2022-12-18T07:04:01;34.33;;;19.60;;
950;SDS011;462;48.758;9.256;2022-12-18T07:12:04;37.90;;;19.87;;
950;SDS011;462;48.758;9.256;2022-12-18T07:29:32;40.77;;;26.83;;
950;SDS011;462;48.758;9.256;2022-12-18T07:37:34;44.90;;;28.00;;
950;SDS011;462;48.758;9.256;2022-12-18T07:45:38;46.53;;;23.93;;
950;SDS011;462;48.758;9.256;2022-12-18T07:53:40;39.20;;;23.13;;
950;SDS011;462;48.758;9.256;2022-12-18T08:01:44;39.50;;;25.53;;
950;SDS011;462;48.758;9.256;2022-12-18T08:09:47;36.53;;;20.70;;
950;SDS011;462;48.758;9.256;2022-12-18T08:17:51;28.10;;;15.47;;
950;SDS011;462;48.758;9.256;2022-12-18T08:25:53;37.80;;;20.90;;
950;SDS011;462;48.758;9.256;2022-12-18T08:33:57;37.37;;;21.83;;
950;SDS011;462;48.758;9.256;2022-12-18T08:41:59;39.57;;;22.73;;
950;SDS011;462;48.758;9.256;2022-12-18T08:50:21;38.00;;;22.97;;
950;SDS011;462;48.758;9.256;2022-12-18T08:58:23;41.20;;;26.27;;
950;SDS011;462;48.758;9.256;2022-12-18T09:06:27;28.07;;;18.63;;
950;SDS011;462;48.758;9.256;2022-12-18T09:14:29;41.80;;;24.40;;
950;SDS011;462;48.758;9.256;2022-12-18T09:22:33;43.17;;;25.20;;
950;SDS011;462;48.758;9.256;2022-12-18T09:30:36;38.20;;;24.07;;
950;SDS011;462;48.758;9.256;2022-12-18T09:38:40;45.80;;;29.53;;
950;SDS011;462;48.758;9.256;2022-12-18T09:46:44;43.43;;;29.10;;
950;SDS011;462;48.758;9.256;2022-12-18T09:54:51;46.30;;;30.60;;
950;SDS011;462;48.758;9.256;2022-12-18T10:02:58;49.80;;;24.97;;
950;SDS011;462;48.758;9.256;2022-12-18T10:11:09;80.37;;;41.23;;
950;SDS011;462;48.758;9.256;2022-12-18T10:27:51;49.60;;;29.50;;
950;SDS011;462;48.758;9.256;2022-12-18T10:35:56;41.50;;;28.60;;
950;SDS011;462;48.758;9.256;2022-12-18T10:44:12;49.50;;;30.80;;
950;SDS011;462;48.758;9.256;2022-12-18T10:52:19;46.47;;;29.07;;
950;SDS011;462;48.758;9.256;2022-12-18T11:00:25;51.53;;;29.97;;
950;SDS011;462;48.758;9.256;2022-12-18T11:08:29;65.77;;;33.83;;
950;SDS011;462;48.758;9.256;2022-12-18T11:16:34;43.83;;;28.93;;
950;SDS011;462;48.758;9.256;2022-12-18T11:24:49;46.30;;;30.00;;
950;SDS011;462;48.758;9.256;2022-12-18T11:32:59;50.93;;;29.20;;
950;SDS011;462;48.758;9.256;2022-12-18T11:41:06;46.27;;;29.20;;
950;SDS011;462;48.758;9.256;2022-12-18T11:49:25;49.23;;;31.40;;
950;SDS011;462;48.758;9.256;2022-12-18T11:57:31;49.10;;;29.07;;
950;SDS011;462;48.758;9.256;2022-12-18T12:05:42;45.30;;;30.20;;
950;SDS011;462;48.758;9.256;2022-12-18T12:14:01;56.93;;;34.20;;
950;SDS011;462;48.758;9.256;2022-12-18T12:22:18;47.53;;;33.50;;
950;SDS011;462;48.758;9.256;2022-12-18T12:30:26;49.13;;;31.90;;
950;SDS011;462;48.758;9.256;2022-12-18T12:38:34;72.63;;;42.77;;
950;SDS011;462;48.758;9.256;2022-12-18T12:46:39;55.10;;;33.47;;
950;SDS011;462;48.758;9.256;2022-12-18T12:54:44;50.53;;;31.33;;
950;SDS011;462;48.758;9.256;2022-12-18T13:02:48;47.20;;;28.97;;
950;SDS011;462;48.758;9.256;2022-12-18T13:10:55;52.47;;;32.97;;
950;SDS011;462;48.758;9.256;2022-12-18T13:19:18;57.03;;;36.27;;
950;SDS011;462;48.758;9.256;2022-12-18T13:36:12;64.10;;;35.43;;
950;SDS011;462;48.758;9.256;2022-12-18T13:44:22;44.00;;;29.17;;
950;SDS011;462;48.758;9.256;2022-12-18T13:52:32;38.60;;;25.57;;
950;SDS011;462;48.758;9.256;2022-12-18T14:00:36;45.70;;;26.20;;
950;SDS011;462;48.758;9.256;2022-12-18T14:08:44;46.53;;;31.17;;
950;SDS011;462;48.758;9.256;2022-12-18T14:16:47;43.83;;;29.03;;
950;SDS011;462;48.758;9.256;2022-12-18T14:25:05;37.53;;;26.40;;
950;SDS011;462;48.758;9.256;2022-12-18T14:33:22;41.23;;;27.67;;
950;SDS011;462;48.758;9.256;2022-12-18T14:41:26;38.20;;;24.77;;
950;SDS011;462;48.758;9.256;2022-12-18T14:49:29;48.53;;;29.10;;
950;SDS011;462;48.758;9.256;2022-12-18T14:57:35;49.27;;;31.03;;
950;SDS011;462;48.758;9.256;2022-12-18T15:05:40;52.17;;;31.30;;
950;SDS011;462;48.758;9.256;2022-12-18T15:13:44;48.93;;;30.80;;
950;SDS011;462;48.758;9.256;2022-12-18T15:21:47;47.90;;;30.77;;
950;SDS011;462;48.758;9.256;2022-12-18T15:30:02;46.77;;;30.13;;
950;SDS011;462;48.758;9.256;2022-12-18T15:38:22;56.40;;;35.37;;
950;SDS011;462;48.758;9.256;2022-12-18T15:46:26;47.13;;;31.40;;
950;SDS011;462;48.758;9.256;2022-12-18T15:54:28;52.60;;;35.17;;
950;SDS011;462;48.758;9.256;2022-12-18T16:02:49;44.97;;;29.33;;
950;SDS011;462;48.758;9.256;2022-12-18T16:10:52;52.27;;;30.70;;
950;SDS011;462;48.758;9.256;2022-12-18T16:18:56;42.87;;;27.43;;
950;SDS011;462;48.758;9.256;2022-12-18T16:26:59;47.27;;;30.50;;
950;SDS011;462;48.758;9.256;2022-12-18T16:35:03;57.30;;;33.40;;
950;SDS011;462;48.758;9.256;2022-12-18T16:43:06;48.30;;;28.40;;
950;SDS011;462;48.758;9.256;2022-12-18T16:51:10;51.90;;;28.73;;
950;SDS011;462;48.758;9.256;2022-12-18T16:59:13;50.70;;;30.73;;
950;SDS011;462;48.758;9.256;2022-12-18T17:07:17;45.43;;;28.03;;
950;SDS011;462;48.758;9.256;2022-12-18T17:15:19;51.33;;;30.60;;
950;SDS011;462;48.758;9.256;2022-12-18T17:23:23;42.27;;;27.43;;
950;SDS011;462;48.758;9.256;2022-12-18T17:31:27;59.83;;;31.47;;
950;SDS011;462;48.758;9.256;2022-12-18T17:39:31;62.00;;;39.50;;
950;SDS011;462;48.758;9.256;2022-12-18T17:47:34;41.40;;;26.80;;
950;SDS011;462;48.758;9.256;2022-12-18T17:55:38;42.33;;;27.13;;
950;SDS011;462;48.758;9.256;2022-12-18T18:03:40;53.40;;;30.77;;
950;SDS011;462;48.758;9.256;2022-12-18T18:11:44;39.37;;;23.80;;
950;SDS011;462;48.758;9.256;2022-12-18T18:20:05;50.77;;;28.10;;
950;SDS011;462;48.758;9.256;2022-12-18T18:28:09;44.90;;;27.40;;
950;SDS011;462;48.758;9.256;2022-12-18T18:36:12;42.53;;;26.13;;
950;SDS011;462;48.758;9.256;2022-12-18T18:44:16;46.97;;;25.60;;
950;SDS011;462;48.758;9.256;2022-12-18T18:52:19;47.30;;;29.40;;
950;SDS011;462;48.758;9.256;2022-12-18T19:00:23;49.37;;;29.40;;
950;SDS011;462;48.758;9.256;2022-12-18T19:08:26;47.80;;;30.03;;
950;SDS011;462;48.758;9.256;2022-12-18T19:16:32;45.90;;;28.37;;
950;SDS011;462;48.758;9.256;2022-12-18T19:24:34;48.93;;;31.80;;
950;SDS011;462;48.758;9.256;2022-12-18T19:32:40;50.73;;;32.10;;
950;SDS011;462;48.758;9.256;2022-12-18T19:40:43;40.67;;;27.30;;
950;SDS011;462;48.758;9.256;2022-12-18T19:48:47;41.40;;;26.80;;
950;SDS011;462;48.758;9.256;2022-12-18T19:56:50;44.30;;;27.67;;
950;SDS011;462;48.758;9.256;2022-12-18T20:04:54;47.23;;;30.10;;
950;SDS011;462;48.758;9.256;2022-12-18T20:12:56;46.83;;;26.50;;
950;SDS011;462;48.758;9.256;2022-12-18T20:21:00;40.10;;;24.13;;
950;SDS011;462;48.758;9.256;2022-12-18T20:29:03;42.47;;;27.77;;
950;SDS011;462;48.758;9.256;2022-12-18T20:37:06;46.10;;;27.47;;
950;SDS011;462;48.758;9.256;2022-12-18T20:45:09;43.50;;;25.17;;
950;SDS011;462;48.758;9.256;2022-12-18T20:53:13;39.43;;;25.40;;
950;SDS011;462;48.758;9.256;2022-12-18T21:01:16;48.57;;;27.60;;
950;SDS011;462;48.758;9.256;2022-12-18T21:09:21;45.50;;;27.03;;
950;SDS011;462;48.758;9.256;2022-12-18T21:17:23;58.90;;;32.27;;
950;SDS011;462;48.758;9.256;2022-12-18T21:25:27;45.83;;;27.23;;
950;SDS011;462;48.758;9.256;2022-12-18T21:33:30;46.40;;;27.47;;
950;SDS011;462;48.758;9.256;2022-12-18T21:41:34;45.47;;;28.60;;
950;SDS011;462;48.758;9.256;2022-12-18T21:49:54;46.13;;;27.70;;
950;SDS011;462;48.758;9.256;2022-12-18T21:57:58;53.23;;;30.37;;
950;SDS011;462;48.758;9.256;2022-12-18T22:06:02;56.13;;;30.33;;
950;SDS011;462;48.758;9.256;2022-12-18T22:14:06;58.27;;;30.60;;
950;SDS011;462;48.758;9.256;2022-12-18T22:22:08;46.63;;;29.37;;
950;SDS011;462;48.758;9.256;2022-12-18T22:30:13;41.73;;;26.17;;
950;SDS011;462;48.758;9.256;2022-12-18T22:38:15;48.30;;;29.63;;
950;SDS011;462;48.758;9.256;2022-12-18T22:46:19;47.97;;;27.80;;
950;SDS011;462;48.758;9.256;2022-12-18T22:54:23;45.43;;;25.73;;
950;SDS011;462;48.758;9.256;2022-12-18T23:02:27;45.60;;;26.50;;
950;SDS011;462;48.758;9.256;2022-12-18T23:10:29;45.60;;;28.60;;
950;SDS011;462;48.758;9.256;2022-12-18T23:18:34;49.40;;;28.13;;
950;SDS011;462;48.758;9.256;2022-12-18T23:26:37;47.73;;;26.60;;
950;SDS011;462;48.758;9.256;2022-12-18T23:34:41;46.27;;;26.57;;
950;SDS011;462;48.758;9.256;2022-12-18T23:42:43;45.40;;;26.63;;
950;SDS011;462;48.758;9.256;2022-12-18T23:50:47;49.40;;;31.00;;
950;SDS011;462;48.758;9.256;2022-12-18T23:58:50;44.10;;;29.50;;
